Time;durP1;ratioP1;P1;durP2;ratioP2;P2;SDS_P1;SDS_P2;PMS_P1;PMS_P2;Temp;Humidity;BMP_temperature;BMP_pressure;BME280_temperature;BME280_humidity;BME280_pressure;Samples;Min_cycle;Max_cycle;Signal;HPM_P1;HPM_P2
2021/11/24 00:00:40;;;;;;;64.57;25.77;;;5.80;1.00;;;;;;5014954;28;20215;-60
2021/11/24 00:03:08;;;;;;;59.40;23.70;;;5.80;1.00;;;;;;5015059;28;20230;-60
2021/11/24 00:05:35;;;;;;;59.03;24.57;;;5.70;1.00;;;;;;5014285;28;20294;-61
2021/11/24 00:08:02;;;;;;;58.37;24.53;;;5.70;1.00;;;;;;5014620;28;20207;-60
2021/11/24 00:10:31;;;;;;;56.93;24.30;;;5.70;1.00;;;;;;5015173;28;20239;-59
2021/11/24 00:12:58;;;;;;;54.67;23.33;;;5.70;1.00;;;;;;5014916;28;20246;-60
2021/11/24 00:15:25;;;;;;;63.70;27.43;;;5.80;1.00;;;;;;5014602;28;20268;-60
2021/11/24 00:17:52;;;;;;;65.20;25.43;;;5.90;1.00;;;;;;5014706;28;20206;-57
2021/11/24 00:20:20;;;;;;;59.87;24.47;;;5.90;99.90;;;;;;5014533;28;20207;-55
2021/11/24 00:22:47;;;;;;;68.63;24.80;;;5.90;99.90;;;;;;5014388;28;20207;-60
2021/11/24 00:25:14;;;;;;;54.47;25.00;;;5.90;99.90;;;;;;5013531;28;20296;-59
2021/11/24 00:27:40;;;;;;;71.00;25.27;;;5.90;99.90;;;;;;5014029;28;20257;-61
2021/11/24 00:30:09;;;;;;;64.73;25.00;;;5.90;99.90;;;;;;5014196;28;20231;-60
2021/11/24 00:32:35;;;;;;;72.33;27.00;;;5.80;99.90;;;;;;5014213;28;20206;-60
2021/11/24 00:35:04;;;;;;;69.00;26.93;;;5.90;99.90;;;;;;5013766;28;20231;-60
2021/11/24 00:37:32;;;;;;;81.47;27.17;;;6.00;99.90;;;;;;5013666;28;20207;-58
2021/11/24 00:39:58;;;;;;;67.63;24.90;;;6.00;99.90;;;;;;5014054;28;20207;-60
2021/11/24 00:42:26;;;;;;;61.67;25.37;;;6.00;99.90;;;;;;5014030;28;20297;-60
2021/11/24 00:44:52;;;;;;;73.30;24.63;;;6.00;99.90;;;;;;5013635;28;20285;-59
2021/11/24 00:47:19;;;;;;;77.93;25.63;;;6.10;99.90;;;;;;5013849;28;20214;-59
2021/11/24 00:49:45;;;;;;;65.90;25.60;;;6.10;99.90;;;;;;5013691;28;20696;-61
2021/11/24 00:52:12;;;;;;;73.33;25.17;;;6.10;99.90;;;;;;5013680;28;20203;-60
2021/11/24 00:54:40;;;;;;;77.80;26.40;;;6.20;99.90;;;;;;5013185;28;20234;-61
2021/11/24 00:57:07;;;;;;;58.47;23.73;;;6.20;99.90;;;;;;5013611;28;20722;-60
2021/11/24 00:59:34;;;;;;;62.80;24.90;;;6.20;99.90;;;;;;5013641;28;20257;-61
2021/11/24 01:02:00;;;;;;;74.73;24.97;;;6.20;99.90;;;;;;5013656;28;20207;-61
2021/11/24 01:04:27;;;;;;;70.60;26.07;;;6.20;99.90;;;;;;5013349;28;20231;-60
2021/11/24 01:06:54;;;;;;;65.10;25.83;;;6.20;99.90;;;;;;5013119;28;20202;-60
2021/11/24 01:09:21;;;;;;;78.13;26.07;;;6.20;99.90;;;;;;5013601;28;20226;-60
2021/11/24 01:11:50;;;;;;;81.67;26.67;;;6.10;99.90;;;;;;5013434;28;20276;-60
2021/11/24 01:14:16;;;;;;;89.03;27.90;;;6.10;99.90;;;;;;5013315;28;20256;-61
2021/11/24 01:16:44;;;;;;;77.37;25.57;;;6.00;99.90;;;;;;5012944;28;20635;-61
2021/11/24 01:19:11;;;;;;;73.33;26.87;;;6.00;99.90;;;;;;5013330;28;20249;-61
2021/11/24 01:21:38;;;;;;;76.50;26.83;;;6.10;99.90;;;;;;5013042;28;20245;-60
2021/11/24 01:24:05;;;;;;;68.30;26.20;;;6.20;99.90;;;;;;5013132;28;20207;-60
2021/11/24 01:26:32;;;;;;;80.47;26.73;;;6.20;99.90;;;;;;5012849;28;20211;-60
2021/11/24 01:29:00;;;;;;;91.80;29.60;;;6.20;99.90;;;;;;5013040;28;20630;-59
2021/11/24 01:31:26;;;;;;;104.60;27.27;;;6.30;99.90;;;;;;5013079;28;20569;-60
2021/11/24 01:33:53;;;;;;;86.90;27.23;;;6.30;99.90;;;;;;5012797;28;20273;-60
2021/11/24 01:36:20;;;;;;;94.03;26.97;;;6.30;99.90;;;;;;5012847;28;20234;-60
2021/11/24 01:38:47;;;;;;;82.57;26.20;;;6.30;99.90;;;;;;5012912;28;20203;-60
2021/11/24 01:41:14;;;;;;;88.47;26.43;;;6.30;99.90;;;;;;5011954;28;20299;-60
2021/11/24 01:43:41;;;;;;;96.67;28.20;;;6.30;99.90;;;;;;5012895;28;20211;-60
2021/11/24 01:46:09;;;;;;;79.57;26.47;;;6.30;99.90;;;;;;5012425;28;20278;-60
2021/11/24 01:48:35;;;;;;;143.27;28.60;;;6.30;99.90;;;;;;5012550;28;20742;-60
2021/11/24 01:51:02;;;;;;;96.63;27.23;;;6.20;99.90;;;;;;5012650;28;20227;-60
2021/11/24 01:53:29;;;;;;;127.67;27.73;;;6.20;99.90;;;;;;5012998;28;20210;-58
2021/11/24 01:56:00;;;;;;;129.93;29.57;;;6.20;99.90;;;;;;5012409;28;20643;-58
2021/11/24 01:58:27;;;;;;;116.60;27.40;;;6.20;99.90;;;;;;5012857;28;20558;-60
2021/11/24 02:00:54;;;;;;;126.33;29.43;;;6.20;99.90;;;;;;5012521;28;20209;-60
2021/11/24 02:03:22;;;;;;;135.00;28.60;;;6.20;99.90;;;;;;5012565;28;20234;-60
2021/11/24 02:05:49;;;;;;;201.60;31.63;;;6.10;99.90;;;;;;5012354;28;20230;-61
2021/11/24 02:08:15;;;;;;;185.83;31.87;;;6.10;99.90;;;;;;5012407;28;20762;-60
2021/11/24 02:10:42;;;;;;;222.97;33.17;;;6.00;99.90;;;;;;5012530;28;20281;-60
2021/11/24 02:13:09;;;;;;;172.80;29.37;;;6.00;99.90;;;;;;5012469;28;20249;-60
2021/11/24 02:15:36;;;;;;;172.87;30.50;;;5.90;99.90;;;;;;5011976;28;20231;-60
2021/11/24 02:18:04;;;;;;;210.23;32.37;;;6.00;99.90;;;;;;5012829;28;20559;-61
2021/11/24 02:20:40;;;;;;;215.83;36.43;;;5.90;99.90;;;;;;5014847;28;20261;-60
2021/11/24 02:23:09;;;;;;;229.73;35.67;;;5.90;99.90;;;;;;5014519;28;20701;-60
2021/11/24 02:25:36;;;;;;;150.37;30.83;;;5.80;99.90;;;;;;5013819;28;20234;-60
2021/11/24 02:28:03;;;;;;;179.03;32.17;;;5.90;99.90;;;;;;5013872;28;20215;-60
2021/11/24 02:30:30;;;;;;;255.27;32.70;;;6.00;99.90;;;;;;5013824;28;20226;-60
2021/11/24 02:32:57;;;;;;;311.63;35.43;;;5.90;99.90;;;;;;5012539;28;20207;-60
2021/11/24 02:35:24;;;;;;;244.50;34.00;;;5.90;99.90;;;;;;5011645;28;20708;-61
2021/11/24 02:37:52;;;;;;;162.83;31.17;;;5.90;99.90;;;;;;5012148;28;20265;-60
2021/11/24 02:40:19;;;;;;;243.07;32.57;;;6.00;99.90;;;;;;5012105;28;20218;-60
2021/11/24 02:42:46;;;;;;;133.43;31.33;;;6.00;99.90;;;;;;5012089;28;20628;-60
2021/11/24 02:45:13;;;;;;;331.43;37.00;;;5.90;99.90;;;;;;5012018;28;20239;-60
2021/11/24 02:47:39;;;;;;;215.80;30.33;;;5.90;99.90;;;;;;5012168;28;20210;-61
2021/11/24 02:50:07;;;;;;;202.30;31.53;;;5.90;99.90;;;;;;5011950;28;20265;-60
2021/11/24 02:52:34;;;;;;;128.87;30.37;;;6.00;99.90;;;;;;5015608;28;20635;-60
2021/11/24 02:55:05;;;;;;;157.00;30.67;;;6.10;99.90;;;;;;5015429;28;20285;-60
2021/11/24 02:57:35;;;;;;;194.83;30.63;;;6.10;99.90;;;;;;5016255;28;20214;-59
2021/11/24 03:00:03;;;;;;;158.13;31.20;;;6.10;99.90;;;;;;5016449;28;20199;-60
2021/11/24 03:02:29;;;;;;;187.30;32.80;;;6.00;99.90;;;;;;5016091;28;20219;-61
2021/11/24 03:04:57;;;;;;;235.47;33.20;;;6.00;99.90;;;;;;5015573;28;20231;-60
2021/11/24 03:07:23;;;;;;;261.03;32.27;;;6.00;99.90;;;;;;5016033;28;20214;-60
2021/11/24 03:09:52;;;;;;;213.50;33.57;;;5.90;1.00;;;;;;5015381;28;20270;-60
2021/11/24 03:12:20;;;;;;;209.00;33.37;;;5.90;1.00;;;;;;5015733;28;20210;-61
2021/11/24 03:14:47;;;;;;;228.83;32.53;;;6.00;1.00;;;;;;5015403;28;20629;-60
2021/11/24 03:17:14;;;;;;;201.80;32.37;;;6.00;1.00;;;;;;5015500;28;20246;-61
2021/11/24 03:19:41;;;;;;;319.50;37.70;;;6.10;99.90;;;;;;5015505;28;20215;-59
2021/11/24 03:22:07;;;;;;;236.00;32.63;;;6.10;99.90;;;;;;5015314;28;20214;-60
2021/11/24 03:24:34;;;;;;;216.57;33.97;;;6.20;99.90;;;;;;5014832;28;20645;-60
2021/11/24 03:27:01;;;;;;;281.83;33.20;;;5.90;99.90;;;;;;5015487;28;20214;-60
2021/11/24 03:29:29;;;;;;;301.67;33.53;;;5.90;1.00;;;;;;5015365;28;20257;-60
2021/11/24 03:31:55;;;;;;;242.47;33.27;;;5.90;1.00;;;;;;5015526;28;20203;-61
2021/11/24 03:34:22;;;;;;;367.67;37.37;;;5.90;1.00;;;;;;5015201;28;20777;-60
2021/11/24 03:36:49;;;;;;;442.43;38.97;;;5.90;1.00;;;;;;5014860;28;20269;-59
2021/11/24 03:39:16;;;;;;;307.97;35.43;;;5.90;1.00;;;;;;5015433;28;20831;-60
2021/11/24 03:41:42;;;;;;;419.77;37.33;;;5.90;1.00;;;;;;5015224;28;20292;-60
2021/11/24 03:44:09;;;;;;;263.37;32.30;;;6.00;1.00;;;;;;5015210;28;20277;-60
2021/11/24 03:46:37;;;;;;;244.37;33.27;;;6.10;1.00;;;;;;5014800;28;20214;-61
2021/11/24 03:49:04;;;;;;;308.03;36.63;;;6.10;1.00;;;;;;5014913;28;20207;-60
2021/11/24 03:51:31;;;;;;;171.43;29.33;;;6.10;1.00;;;;;;5014578;28;20230;-60
2021/11/24 03:53:57;;;;;;;247.90;32.27;;;6.10;99.90;;;;;;5015139;28;20215;-57
2021/11/24 03:56:24;;;;;;;225.87;31.30;;;6.10;99.90;;;;;;5014485;28;20231;-60
2021/11/24 03:58:51;;;;;;;281.10;34.27;;;6.10;99.90;;;;;;5015131;28;20211;-60
2021/11/24 04:01:17;;;;;;;287.60;33.77;;;6.10;99.90;;;;;;5014760;28;20207;-60
2021/11/24 04:03:45;;;;;;;222.93;30.83;;;6.10;99.90;;;;;;5013897;28;20568;-60
2021/11/24 04:06:12;;;;;;;253.33;30.53;;;6.10;99.90;;;;;;5014127;28;20317;-60
2021/11/24 04:08:38;;;;;;;300.67;33.17;;;6.10;99.90;;;;;;5014598;28;20214;-60
2021/11/24 04:11:05;;;;;;;311.23;34.67;;;6.20;99.90;;;;;;5014661;28;20223;-59
2021/11/24 04:13:32;;;;;;;286.43;31.83;;;6.20;99.90;;;;;;5014539;28;20207;-59
2021/11/24 04:15:59;;;;;;;376.93;34.60;;;6.20;99.90;;;;;;5014242;28;20719;-60
2021/11/24 04:18:26;;;;;;;355.30;32.17;;;6.30;99.90;;;;;;5014142;28;20269;-60
2021/11/24 04:20:56;;;;;;;372.80;36.70;;;6.30;99.90;;;;;;5014449;28;20615;-59
2021/11/24 04:23:22;;;;;;;335.00;34.13;;;6.30;99.90;;;;;;5014255;28;20694;-59
2021/11/24 04:25:49;;;;;;;316.33;31.53;;;6.30;99.90;;;;;;5013805;28;20234;-60
2021/11/24 04:28:16;;;;;;;257.30;32.60;;;6.40;99.90;;;;;;5014211;28;20265;-60
2021/11/24 04:30:42;;;;;;;370.07;34.33;;;6.30;99.90;;;;;;5013947;28;20254;-60
2021/11/24 04:33:09;;;;;;;349.53;34.97;;;6.40;99.90;;;;;;5014042;28;20598;-60
2021/11/24 04:35:38;;;;;;;315.33;32.33;;;6.40;99.90;;;;;;5013542;28;20716;-57
2021/11/24 04:38:06;;;;;;;371.23;33.63;;;6.40;99.90;;;;;;5013933;28;20222;-60
2021/11/24 04:40:33;;;;;;;298.37;33.03;;;6.40;99.90;;;;;;5013939;28;20631;-57
2021/11/24 04:43:02;;;;;;;253.33;30.10;;;6.40;99.90;;;;;;5013780;28;20266;-60
2021/11/24 04:45:29;;;;;;;225.57;29.67;;;6.40;99.90;;;;;;5013423;28;20440;-60
2021/11/24 04:47:55;;;;;;;191.90;30.23;;;6.40;99.90;;;;;;5014057;28;20266;-60
2021/11/24 04:50:22;;;;;;;301.23;32.33;;;6.40;99.90;;;;;;5013761;28;20234;-58
2021/11/24 04:52:49;;;;;;;354.00;33.90;;;6.40;99.90;;;;;;5013775;28;20219;-58
2021/11/24 04:55:17;;;;;;;344.20;32.83;;;6.40;99.90;;;;;;5013583;28;20231;-58
2021/11/24 04:57:43;;;;;;;335.43;34.87;;;6.30;99.90;;;;;;5013769;28;20202;-56
2021/11/24 05:00:16;;;;;;;220.70;31.53;;;6.30;99.90;;;;;;5013410;28;20210;-60
2021/11/24 05:02:43;;;;;;;397.90;35.30;;;6.30;99.90;;;;;;5013848;28;20281;-60
2021/11/24 05:05:10;;;;;;;381.57;34.07;;;6.40;99.90;;;;;;5013338;28;20223;-60
2021/11/24 05:07:37;;;;;;;432.60;36.67;;;6.40;99.90;;;;;;5013471;28;20266;-58
2021/11/24 05:10:05;;;;;;;418.53;34.30;;;6.40;99.90;;;;;;5013445;28;20210;-59
2021/11/24 05:12:35;;;;;;;288.43;31.83;;;6.40;99.90;;;;;;5013610;28;20207;-59
2021/11/24 05:15:02;;;;;;;125.30;27.70;;;6.40;99.90;;;;;;5013178;28;20232;-61
2021/11/24 05:17:30;;;;;;;169.23;29.17;;;6.40;99.90;;;;;;5013624;28;20269;-60
2021/11/24 05:19:57;;;;;;;222.23;30.57;;;6.50;99.90;;;;;;5013246;28;20577;-57
2021/11/24 05:22:24;;;;;;;453.30;37.73;;;6.50;99.90;;;;;;5013130;28;20207;-60
2021/11/24 05:24:51;;;;;;;333.33;33.40;;;6.50;99.90;;;;;;5013694;28;20641;-61
2021/11/24 05:27:18;;;;;;;192.20;30.13;;;6.40;99.90;;;;;;5013063;28;20254;-61
2021/11/24 05:29:46;;;;;;;222.00;31.17;;;6.30;99.90;;;;;;5010347;28;20215;-60
2021/11/24 05:32:13;;;;;;;398.30;35.23;;;6.40;99.90;;;;;;5012928;28;20273;-61
2021/11/24 05:34:39;;;;;;;167.97;28.33;;;6.40;99.90;;;;;;5012577;28;20282;-61
2021/11/24 05:37:07;;;;;;;172.07;29.83;;;6.30;99.90;;;;;;5012747;28;20207;-61
2021/11/24 05:39:35;;;;;;;321.93;35.00;;;6.30;99.90;;;;;;5010600;28;20628;-61
2021/11/24 05:42:01;;;;;;;397.73;34.57;;;6.30;99.90;;;;;;5009871;28;20887;-61
2021/11/24 05:44:32;;;;;;;280.33;35.47;;;6.30;99.90;;;;;;5012151;28;20230;-61
2021/11/24 05:47:06;;;;;;;236.10;31.97;;;6.40;99.90;;;;;;5012746;28;20207;-61
2021/11/24 05:49:33;;;;;;;366.77;35.50;;;6.40;99.90;;;;;;5017520;28;20303;-61
2021/11/24 05:52:00;;;;;;;333.73;31.37;;;6.50;99.90;;;;;;5012343;28;20642;-60
2021/11/24 05:54:27;;;;;;;308.57;31.00;;;6.50;99.90;;;;;;5012375;28;20259;-60
2021/11/24 05:56:54;;;;;;;371.57;33.37;;;6.50;99.90;;;;;;5012358;28;20202;-59
2021/11/24 05:59:20;;;;;;;440.10;38.40;;;6.60;99.90;;;;;;5012622;28;20258;-57
2021/11/24 06:01:47;;;;;;;302.40;34.07;;;6.60;99.90;;;;;;5012323;28;20294;-59
2021/11/24 06:04:15;;;;;;;179.97;29.40;;;6.60;99.90;;;;;;5012247;28;20615;-60
2021/11/24 06:06:42;;;;;;;281.83;31.37;;;6.60;99.90;;;;;;5011984;28;20211;-60
2021/11/24 06:09:09;;;;;;;324.43;32.47;;;6.70;99.90;;;;;;5011999;28;20684;-58
2021/11/24 06:11:37;;;;;;;348.87;31.03;;;6.70;99.90;;;;;;5012025;28;20232;-59
2021/11/24 06:14:04;;;;;;;430.67;33.27;;;6.60;99.90;;;;;;5012103;28;20314;-59
2021/11/24 06:16:30;;;;;;;300.00;31.57;;;6.70;99.90;;;;;;5011967;28;20661;-59
2021/11/24 06:18:57;;;;;;;426.10;38.53;;;6.60;99.90;;;;;;5012059;28;20202;-60
2021/11/24 06:21:25;;;;;;;381.63;35.80;;;6.60;99.90;;;;;;5011915;28;20753;-60
2021/11/24 06:23:52;;;;;;;493.80;39.77;;;6.60;99.90;;;;;;5011795;28;20219;-59
2021/11/24 06:26:21;;;;;;;239.37;31.00;;;6.40;99.90;;;;;;5011365;28;20235;-59
2021/11/24 06:28:48;;;;;;;160.47;28.97;;;6.40;99.90;;;;;;5012327;28;20245;-59
2021/11/24 06:31:14;;;;;;;141.40;30.10;;;6.40;99.90;;;;;;5011906;28;20233;-61
2021/11/24 06:33:41;;;;;;;214.43;32.17;;;6.40;99.90;;;;;;5003890;28;20219;-54
2021/11/24 06:36:08;;;;;;;410.53;38.33;;;6.40;99.90;;;;;;5010683;28;20265;-58
2021/11/24 06:38:36;;;;;;;361.93;35.10;;;6.40;99.90;;;;;;5011641;28;20680;-61
2021/11/24 06:41:03;;;;;;;277.97;33.23;;;6.40;99.90;;;;;;5011990;28;20619;-57
2021/11/24 06:43:30;;;;;;;454.23;37.70;;;6.50;99.90;;;;;;5011631;28;20273;-57
2021/11/24 06:45:57;;;;;;;463.30;37.23;;;6.40;99.90;;;;;;5011074;28;20233;-60
2021/11/24 06:48:23;;;;;;;282.93;31.13;;;6.30;99.90;;;;;;5011361;28;20208;-60
2021/11/24 06:50:50;;;;;;;413.63;36.93;;;6.30;99.90;;;;;;5011327;28;20634;-59
2021/11/24 06:53:17;;;;;;;394.90;33.27;;;6.40;99.90;;;;;;5011581;28;20213;-60
2021/11/24 06:55:45;;;;;;;428.57;36.27;;;6.40;99.90;;;;;;5011037;28;20596;-61
2021/11/24 06:58:12;;;;;;;515.33;42.27;;;6.20;99.90;;;;;;5011576;28;20215;-64
2021/11/24 07:00:39;;;;;;;387.90;38.47;;;6.00;99.90;;;;;;5011453;28;20215;-62
2021/11/24 07:03:06;;;;;;;390.63;34.13;;;6.10;99.90;;;;;;5011447;28;20754;-62
2021/11/24 07:05:32;;;;;;;341.73;37.47;;;6.20;99.90;;;;;;5010953;28;20643;-62
2021/11/24 07:07:59;;;;;;;347.67;33.90;;;6.20;99.90;;;;;;5011554;28;20606;-63
2021/11/24 07:10:26;;;;;;;420.37;39.17;;;6.30;99.90;;;;;;5011892;28;20583;-63
2021/11/24 07:12:55;;;;;;;111.43;26.77;;;6.30;99.90;;;;;;5011222;28;20231;-62
2021/11/24 07:15:21;;;;;;;483.60;40.93;;;6.30;99.90;;;;;;5010791;28;20321;-60
2021/11/24 07:17:48;;;;;;;535.13;41.20;;;6.30;99.90;;;;;;5010932;28;20282;-60
2021/11/24 07:20:15;;;;;;;391.23;35.07;;;6.30;99.90;;;;;;5011393;28;20207;-59
2021/11/24 07:22:42;;;;;;;411.70;36.47;;;6.30;99.90;;;;;;5011197;28;20246;-60
2021/11/24 07:25:10;;;;;;;280.27;33.33;;;6.30;99.90;;;;;;5010448;28;20235;-59
2021/11/24 07:27:37;;;;;;;295.47;32.83;;;6.30;1.00;;;;;;5011276;28;20210;-58
2021/11/24 07:30:06;;;;;;;327.13;32.13;;;6.30;1.00;;;;;;5011099;28;20207;-57
2021/11/24 07:32:33;;;;;;;420.37;36.03;;;6.30;1.00;;;;;;5011519;28;20238;-56
2021/11/24 07:35:01;;;;;;;372.37;33.80;;;6.20;1.00;;;;;;5010355;28;20262;-63
2021/11/24 07:37:28;;;;;;;366.87;34.60;;;6.20;1.00;;;;;;5011519;28;20295;-58
2021/11/24 07:39:55;;;;;;;430.23;37.37;;;6.10;1.00;;;;;;5014669;28;20585;-57
2021/11/24 07:42:22;;;;;;;333.43;33.63;;;6.20;1.00;;;;;;5015204;28;20206;-59
2021/11/24 07:44:49;;;;;;;415.33;35.60;;;6.30;1.00;;;;;;5013625;28;20712;-60
2021/11/24 07:47:17;;;;;;;302.10;33.37;;;6.30;1.00;;;;;;5013775;28;20209;-59
2021/11/24 07:49:44;;;;;;;348.80;35.40;;;6.30;1.00;;;;;;5014739;28;20206;-60
2021/11/24 07:52:10;;;;;;;207.53;29.43;;;6.30;1.00;;;;;;5014540;28;20227;-59
2021/11/24 07:54:37;;;;;;;156.83;27.87;;;6.30;1.00;;;;;;5013553;28;20227;-63
2021/11/24 07:57:04;;;;;;;221.03;29.17;;;6.40;1.00;;;;;;5014485;28;20211;-59
2021/11/24 07:59:31;;;;;;;152.73;28.50;;;6.40;1.00;;;;;;5013996;28;20212;-58
2021/11/24 08:01:57;;;;;;;96.93;24.37;;;6.50;1.00;;;;;;5014557;28;20211;-58
2021/11/24 08:04:26;;;;;;;88.50;24.67;;;6.50;1.00;;;;;;5013627;28;20715;-59
2021/11/24 08:06:53;;;;;;;94.13;24.40;;;6.50;1.00;;;;;;5013948;28;20206;-60
2021/11/24 08:09:19;;;;;;;84.73;24.13;;;6.50;1.00;;;;;;5014150;28;20672;-60
2021/11/24 08:11:46;;;;;;;85.57;23.47;;;6.50;1.00;;;;;;5013832;28;20231;-58
2021/11/24 08:14:13;;;;;;;87.23;24.10;;;6.50;1.00;;;;;;5025066;28;20214;-59
2021/11/24 08:16:39;;;;;;;72.90;21.80;;;6.50;1.00;;;;;;5033326;28;20209;-60
2021/11/24 08:19:06;;;;;;;77.67;22.73;;;6.30;1.00;;;;;;5034029;28;20272;-61
2021/11/24 08:21:34;;;;;;;80.17;23.27;;;6.30;1.00;;;;;;5033772;28;20256;-58
2021/11/24 08:24:01;;;;;;;87.23;24.03;;;6.30;1.00;;;;;;5033193;28;20210;-60
2021/11/24 08:26:28;;;;;;;91.73;24.27;;;6.30;1.00;;;;;;5032924;28;20224;-61
2021/11/24 08:28:54;;;;;;;82.57;24.47;;;6.30;1.00;;;;;;5033526;28;20210;-63
2021/11/24 08:31:22;;;;;;;80.53;23.90;;;6.30;1.00;;;;;;5033458;28;20217;-61
2021/11/24 08:33:48;;;;;;;88.57;25.20;;;6.30;1.00;;;;;;5033122;28;20214;-62
2021/11/24 08:36:16;;;;;;;70.87;23.37;;;6.30;1.00;;;;;;5032911;28;20231;-60
2021/11/24 08:38:44;;;;;;;73.60;23.47;;;6.30;1.00;;;;;;5033354;28;20210;-61
2021/11/24 08:41:15;;;;;;;65.83;23.70;;;6.40;1.00;;;;;;5032968;28;20684;-62
2021/11/24 08:43:42;;;;;;;82.23;25.13;;;6.50;1.00;;;;;;5033051;28;20210;-58
2021/11/24 08:46:09;;;;;;;86.33;24.73;;;6.60;1.00;;;;;;5032846;28;20230;-57
2021/11/24 08:48:36;;;;;;;97.10;25.97;;;6.50;1.00;;;;;;5032678;28;20207;-57
2021/11/24 08:51:04;;;;;;;92.53;25.83;;;6.40;1.00;;;;;;5033163;28;20202;-59
2021/11/24 08:53:31;;;;;;;97.63;26.20;;;6.30;1.00;;;;;;5032397;28;20230;-60
2021/11/24 08:55:59;;;;;;;92.37;25.20;;;6.40;1.00;;;;;;5032682;28;20234;-57
2021/11/24 08:58:25;;;;;;;95.97;26.80;;;6.50;1.00;;;;;;5032884;28;20215;-58
2021/11/24 09:00:52;;;;;;;99.20;27.63;;;6.60;1.00;;;;;;5032892;28;20248;-57
2021/11/24 09:03:21;;;;;;;89.30;25.53;;;6.50;1.00;;;;;;5032311;28;20686;-57
2021/11/24 09:05:48;;;;;;;104.30;27.10;;;6.50;1.00;;;;;;5032174;28;20237;-59
2021/11/24 09:08:15;;;;;;;92.40;25.20;;;6.50;1.00;;;;;;5032274;28;20948;-57
2021/11/24 09:10:42;;;;;;;98.93;26.90;;;6.60;1.00;;;;;;5032825;28;20679;-57
2021/11/24 09:13:10;;;;;;;83.00;24.97;;;6.70;1.00;;;;;;5032708;28;20227;-61
2021/11/24 09:15:38;;;;;;;86.23;23.90;;;6.80;1.00;;;;;;5023615;28;20569;-56
2021/11/24 09:18:05;;;;;;;89.20;26.00;;;6.70;1.00;;;;;;5012819;28;20675;-58
2021/11/24 09:20:33;;;;;;;84.07;25.33;;;6.60;1.00;;;;;;5012857;28;20208;-59
2021/11/24 09:22:59;;;;;;;88.27;25.87;;;6.80;1.00;;;;;;5012542;28;20229;-57
2021/11/24 09:25:35;;;;;;;81.33;25.47;;;6.80;1.00;;;;;;5012146;28;20255;-59
2021/11/24 09:28:08;;;;;;;85.67;25.93;;;6.90;1.00;;;;;;5012485;28;20680;-56
2021/11/24 09:30:37;;;;;;;82.13;25.50;;;7.00;1.00;;;;;;5012217;28;20204;-66
2021/11/24 09:33:04;;;;;;;80.67;26.03;;;6.90;1.00;;;;;;5011397;28;20598;-60
2021/11/24 09:35:31;;;;;;;90.07;25.93;;;6.90;99.90;;;;;;5011755;28;20227;-62
2021/11/24 09:37:58;;;;;;;75.70;24.40;;;6.90;99.90;;;;;;5012715;28;20246;-61
2021/11/24 09:40:25;;;;;;;76.13;24.37;;;6.90;99.90;;;;;;5012350;28;20808;-61
2021/11/24 09:42:57;;;;;;;67.03;25.60;;;6.90;99.90;;;;;;5012475;28;20207;-62
2021/11/24 09:45:25;;;;;;;76.83;24.70;;;7.00;99.90;;;;;;5011554;28;20712;-61
2021/11/24 09:47:56;;;;;;;70.87;24.13;;;6.90;99.90;;;;;;5012219;28;20217;-58
2021/11/24 09:50:26;;;;;;;74.13;23.90;;;7.00;99.90;;;;;;5012477;28;20566;-56
2021/11/24 09:52:55;;;;;;;63.80;23.93;;;7.10;99.90;;;;;;5011921;28;20231;-55
2021/11/24 09:55:22;;;;;;;65.23;23.00;;;7.30;99.90;;;;;;5011388;28;20289;-55
2021/11/24 09:57:49;;;;;;;64.90;23.87;;;7.40;99.90;;;;;;5012106;28;20211;-58
2021/11/24 10:00:16;;;;;;;60.57;22.47;;;7.40;99.90;;;;;;5011578;28;20208;-58
2021/11/24 10:02:43;;;;;;;58.90;21.97;;;7.50;99.90;;;;;;5011889;28;20208;-60
2021/11/24 10:05:11;;;;;;;57.63;22.50;;;7.40;99.90;;;;;;5011440;28;20223;-59
2021/11/24 10:07:39;;;;;;;54.17;21.90;;;7.40;99.90;;;;;;5011901;28;20207;-60
2021/11/24 10:10:07;;;;;;;56.77;23.33;;;7.50;99.90;;;;;;5011949;28;20357;-60
2021/11/24 10:12:33;;;;;;;53.43;21.30;;;7.40;93.40;;;;;;5011468;28;20278;-61
2021/11/24 10:15:02;;;;;;;54.43;21.67;;;7.60;88.50;;;;;;5011173;28;20304;-60
2021/11/24 10:17:29;;;;;;;51.47;20.73;;;7.70;91.70;;;;;;5011837;28;20582;-60
2021/11/24 10:20:00;;;;;;;49.80;20.90;;;7.60;42.60;;;;;;5012036;28;20233;-63
2021/11/24 10:22:31;;;;;;;55.90;21.77;;;7.60;17.00;;;;;;5011693;28;20222;-61
2021/11/24 10:25:06;;;;;;;50.87;20.60;;;7.70;8.50;;;;;;5010808;28;20620;-61
2021/11/24 10:27:36;;;;;;;53.00;20.30;;;7.70;3.20;;;;;;5012210;28;20241;-62
2021/11/24 10:30:04;;;;;;;53.77;20.00;;;7.70;3.20;;;;;;5012448;28;20212;-62
2021/11/24 10:32:31;;;;;;;46.73;18.97;;;7.70;1.80;;;;;;5011605;28;20236;-63
2021/11/24 10:34:59;;;;;;;46.23;19.57;;;7.70;1.00;;;;;;5011141;28;20228;-62
2021/11/24 10:37:26;;;;;;;45.47;19.80;;;7.70;1.00;;;;;;5011423;28;20210;-62
2021/11/24 10:39:59;;;;;;;52.50;20.47;;;7.80;1.00;;;;;;5011190;28;20212;-61
2021/11/24 10:42:31;;;;;;;47.27;19.17;;;7.70;1.00;;;;;;5011940;28;20203;-62
2021/11/24 10:45:00;;;;;;;47.60;19.87;;;7.80;1.00;;;;;;5010895;28;20239;-61
2021/11/24 10:47:28;;;;;;;45.33;18.73;;;7.80;1.00;;;;;;5011657;28;20669;-61
2021/11/24 10:49:57;;;;;;;44.43;18.50;;;8.00;1.00;;;;;;5011930;28;20543;-61
2021/11/24 10:52:26;;;;;;;43.10;17.47;;;8.10;1.00;;;;;;5011607;28;20587;-60
2021/11/24 10:55:00;;;;;;;37.90;16.40;;;8.30;1.00;;;;;;5010781;28;20261;-61
2021/11/24 10:57:27;;;;;;;37.73;17.17;;;8.30;1.00;;;;;;5011707;28;20205;-62
2021/11/24 11:00:01;;;;;;;42.10;18.33;;;8.20;1.00;;;;;;5011546;28;20214;-61
2021/11/24 11:02:32;;;;;;;41.90;16.17;;;8.20;1.00;;;;;;5011268;28;20209;-61
2021/11/24 11:05:08;;;;;;;34.30;15.50;;;8.20;1.00;;;;;;5010475;28;20224;-61
2021/11/24 11:07:38;;;;;;;34.53;15.37;;;8.20;1.00;;;;;;5011551;28;20215;-62
2021/11/24 11:10:17;;;;;;;35.57;16.13;;;8.30;1.00;;;;;;5011294;28;20214;-61
2021/11/24 11:12:45;;;;;;;32.30;15.00;;;8.40;1.00;;;;;;5012817;28;20226;-64
2021/11/24 11:15:22;;;;;;;35.00;14.97;;;8.50;1.00;;;;;;5014206;28;20230;-64
2021/11/24 11:17:51;;;;;;;29.03;13.97;;;8.50;1.00;;;;;;5014839;28;20202;-64
2021/11/24 11:20:19;;;;;;;28.23;13.57;;;8.50;1.00;;;;;;5014801;28;20207;-62
2021/11/24 11:22:46;;;;;;;31.20;14.63;;;8.50;1.00;;;;;;5014798;28;20210;-58
2021/11/24 11:25:14;;;;;;;31.43;15.03;;;8.60;1.00;;;;;;5014316;28;20242;-62
2021/11/24 11:27:43;;;;;;;29.77;13.97;;;8.50;1.00;;;;;;5014503;28;20221;-62
2021/11/24 11:30:10;;;;;;;30.50;14.17;;;8.60;1.00;;;;;;5015425;28;20210;-61
2021/11/24 11:32:37;;;;;;;27.73;13.23;;;8.50;1.00;;;;;;5014437;28;20609;-61
2021/11/24 11:35:05;;;;;;;28.80;14.50;;;8.60;1.00;;;;;;5014093;28;20227;-61
2021/11/24 11:37:32;;;;;;;26.70;12.27;;;8.70;1.00;;;;;;5015055;28;20304;-58
2021/11/24 11:39:58;;;;;;;28.03;12.13;;;8.80;1.00;;;;;;5014551;28;20207;-59
2021/11/24 11:42:29;;;;;;;26.47;12.77;;;8.90;1.00;;;;;;5014367;28;20207;-57
2021/11/24 11:45:01;;;;;;;27.57;12.47;;;8.90;1.00;;;;;;5013925;28;20242;-60
2021/11/24 11:47:45;;;;;;;29.93;13.43;;;8.90;1.00;;;;;;5015030;28;20213;-59
2021/11/24 11:50:13;;;;;;;27.90;12.73;;;9.00;1.00;;;;;;5014373;28;20211;-59
2021/11/24 11:52:40;;;;;;;25.83;12.20;;;9.00;1.00;;;;;;5014228;28;20223;-61
2021/11/24 11:55:18;;;;;;;26.47;12.33;;;8.90;1.00;;;;;;5013778;28;20226;-57
2021/11/24 11:57:47;;;;;;;24.50;10.53;;;8.80;1.00;;;;;;5014839;28;20276;-61
2021/11/24 12:00:14;;;;;;;23.53;10.57;;;8.80;1.00;;;;;;5014560;28;20587;-62
2021/11/24 12:02:51;;;;;;;16.77;8.10;;;8.80;1.00;;;;;;5014042;28;20203;-60
2021/11/24 12:05:19;;;;;;;13.63;7.73;;;8.50;1.00;;;;;;5013427;28;20255;-58
2021/11/24 12:08:07;;;;;;;17.13;7.97;;;8.30;1.00;;;;;;5014319;28;20210;-61
2021/11/24 12:10:55;;;;;;;17.63;8.23;;;8.30;1.00;;;;;;5014298;28;20214;-61
2021/11/24 12:13:30;;;;;;;14.53;7.50;;;8.40;1.00;;;;;;5014037;28;20632;-61
2021/11/24 12:15:56;;;;;;;13.93;7.27;;;8.40;1.00;;;;;;5029262;28;20226;-60
2021/11/24 12:18:23;;;;;;;11.23;5.93;;;8.40;1.00;;;;;;5033921;28;20220;-61
2021/11/24 12:20:54;;;;;;;10.73;6.57;;;8.40;1.00;;;;;;5033617;28;20217;-61
2021/11/24 12:23:26;;;;;;;12.33;6.20;;;8.40;1.00;;;;;;5033006;28;20203;-61
2021/11/24 12:25:57;;;;;;;8.87;5.30;;;8.40;1.00;;;;;;5032760;28;20605;-64
2021/11/24 12:28:32;;;;;;;9.80;5.70;;;8.50;1.00;;;;;;5033332;28;20284;-63
2021/11/24 12:31:12;;;;;;;11.90;6.27;;;8.40;1.00;;;;;;5032999;28;20212;-63
2021/11/24 12:33:42;;;;;;;6.73;4.20;;;8.40;1.00;;;;;;5033162;28;20748;-63
2021/11/24 12:36:11;;;;;;;6.97;3.60;;;8.30;1.00;;;;;;5033000;28;20228;-63
2021/11/24 12:38:41;;;;;;;7.00;3.23;;;8.10;99.90;;;;;;5033585;28;20234;-63